Wetterverlauf

Letzte Wetterlage 28.07.2014 07:53
Wetterdiagramm
Tabellarische Darstellung
Datum Temperatur Windchill Feuchte Luftdruck Windrichtung Windstärke Niederschlag
28.07.2014 08:08 17,5 °C 17,5 °C 94 % 1011,6 hPa 135 0.7 0,00 mm
28.07.2014 07:58 17,4 °C 17,4 °C 95 % 1011,7 hPa 270 0.7 0,00 mm
28.07.2014 07:53 17,3 °C 17,3 °C 95 % 1011,7 hPa 225 0.3 0,00 mm
28.07.2014 07:43 17,0 °C 17,0 °C 95 % 1011,9 hPa 225 0.7 0,00 mm
28.07.2014 07:33 16,6 °C 16,6 °C 97 % 1011,8 hPa 0 0.0 0,00 mm
28.07.2014 07:23 16,2 °C 16,2 °C 96 % 1011,8 hPa 270 0.0 0,00 mm
28.07.2014 07:13 15,9 °C 15,9 °C 97 % 1012,0 hPa 90 0.0 0,00 mm
28.07.2014 07:03 15,6 °C 15,6 °C 97 % 1012,1 hPa 0 0.3 0,00 mm
28.07.2014 06:48 15,3 °C 15,3 °C 97 % 1012,1 hPa 0 0.3 0,00 mm
28.07.2014 06:38 15,1 °C 15,1 °C 96 % 1012,1 hPa 0 0.0 0,00 mm
28.07.2014 06:28 15,1 °C 15,1 °C 96 % 1012,2 hPa 0 0.0 0,00 mm
28.07.2014 06:18 15,0 °C 15,0 °C 96 % 1012,2 hPa 45 0.0 0,00 mm
28.07.2014 06:08 15,0 °C 15,0 °C 96 % 1012,2 hPa 180 0.0 0,00 mm
28.07.2014 05:58 15,0 °C 15,0 °C 96 % 1012,4 hPa 225 0.0 0,00 mm
28.07.2014 05:53 15,0 °C 15,0 °C 96 % 1012,4 hPa 180 0.3 0,00 mm
28.07.2014 05:43 15,0 °C 15,0 °C 95 % 1012,5 hPa 180 0.0 0,00 mm
28.07.2014 05:33 15,0 °C 15,0 °C 95 % 1012,4 hPa 0 0.3 0,00 mm
28.07.2014 05:23 14,9 °C 14,9 °C 96 % 1012,4 hPa 135 0.3 0,00 mm
28.07.2014 05:13 15,0 °C 15,0 °C 95 % 1012,4 hPa 45 0.0 0,00 mm
28.07.2014 05:03 15,0 °C 15,0 °C 95 % 1012,6 hPa 315 0.0 0,00 mm
28.07.2014 04:53 15,1 °C 15,1 °C 95 % 1012,9 hPa 315 0.0 0,00 mm
28.07.2014 04:43 15,1 °C 15,1 °C 95 % 1012,9 hPa 225 0.0 0,00 mm
28.07.2014 04:33 15,2 °C 15,2 °C 95 % 1012,7 hPa 0 0.0 0,00 mm
28.07.2014 04:23 15,3 °C 15,3 °C 95 % 1012,7 hPa 315 0.0 0,00 mm
28.07.2014 04:13 15,5 °C 15,5 °C 95 % 1013,0 hPa 45 0.0 0,00 mm
Empfehlen Sie wetter.com
| Mehr
Neue Wetterwarnung

Neue Niederschlagsmeldung
Neue Meldung
Regen Liveticker
    sehr starker Regen/Gewitter
    starker Regen/Gewitter
    mäßiger bis starker Regen
    mäßiger Regen
    leichter bis mäßiger Regen
    kein Regen